Time;durP1;ratioP1;P1;durP2;ratioP2;P2;SDS_P1;SDS_P2;PMS_P1;PMS_P2;Temp;Humidity;BMP_temperature;BMP_pressure;BME280_temperature;BME280_humidity;BME280_pressure;Samples;Min_cycle;Max_cycle;Signal;HPM_P1;HPM_P2
2023/12/10 00:01:45;;;;;;;0.00;0.00;;;11.90;78.50;;;;;;5055502;28;20235;-26
2023/12/10 00:04:12;;;;;;;0.00;0.00;;;11.90;78.50;;;;;;5042950;28;20208;-26
2023/12/10 00:06:42;;;;;;;0.00;0.00;;;11.90;78.60;;;;;;5046095;28;20232;-27
2023/12/10 00:09:11;;;;;;;0.00;0.00;;;11.90;78.40;;;;;;5044079;28;20223;-26
2023/12/10 00:11:39;;;;;;;0.00;0.00;;;11.80;78.20;;;;;;5066780;28;20277;-26
2023/12/10 00:14:06;;;;;;;0.00;0.00;;;11.80;78.30;;;;;;5048959;28;20262;-27
2023/12/10 00:16:33;;;;;;;0.00;0.00;;;11.90;78.40;;;;;;5065600;28;20207;-27
2023/12/10 00:19:00;;;;;;;0.00;0.00;;;11.90;78.40;;;;;;5042338;28;20239;-26
2023/12/10 00:21:30;;;;;;;0.00;0.00;;;11.80;78.40;;;;;;5054994;28;20208;-27
2023/12/10 00:23:57;;;;;;;0.00;0.00;;;11.80;78.40;;;;;;5055193;28;20273;-26
2023/12/10 00:26:29;;;;;;;0.00;0.00;;;11.90;78.30;;;;;;5058028;28;20220;-26
2023/12/10 00:28:59;;;;;;;0.00;0.00;;;11.80;78.30;;;;;;5053278;28;20224;-26
2023/12/10 00:31:26;;;;;;;0.00;0.00;;;11.80;78.20;;;;;;5058759;28;20199;-26
2023/12/10 00:33:56;;;;;;;0.00;0.00;;;11.80;78.20;;;;;;5057892;28;20306;-27
2023/12/10 00:36:28;;;;;;;0.00;0.00;;;11.80;78.10;;;;;;5070063;28;20196;-26
2023/12/10 00:38:56;;;;;;;0.00;0.00;;;11.80;78.30;;;;;;5070225;28;20203;-26
2023/12/10 00:41:25;;;;;;;0.00;0.00;;;11.80;78.10;;;;;;5049845;28;20215;-26
2023/12/10 00:43:52;;;;;;;0.00;0.00;;;11.80;78.00;;;;;;5064551;28;20197;-26
2023/12/10 00:46:20;;;;;;;0.00;0.00;;;11.80;78.00;;;;;;5066779;28;20200;-27
2023/12/10 00:48:49;;;;;;;0.00;0.00;;;11.80;78.10;;;;;;5048390;28;20216;-27
2023/12/10 00:51:25;;;;;;;0.00;0.00;;;11.80;77.80;;;;;;5050671;28;20630;-26
2023/12/10 00:53:59;;;;;;;0.00;0.00;;;11.80;77.50;;;;;;5050544;28;20329;-26
2023/12/10 00:56:27;;;;;;;0.00;0.00;;;11.80;77.90;;;;;;5064691;28;20177;-27
2023/12/10 00:58:56;;;;;;;0.00;0.00;;;11.70;77.80;;;;;;5049406;28;20707;-27
2023/12/10 01:01:25;;;;;;;0.00;0.00;;;11.70;77.60;;;;;;5050127;28;20223;-27
2023/12/10 01:03:55;;;;;;;0.00;0.00;;;11.70;77.70;;;;;;5066028;28;20280;-27
2023/12/10 01:06:25;;;;;;;0.00;0.00;;;11.70;77.60;;;;;;5068677;28;20239;-26
2023/12/10 01:08:55;;;;;;;0.00;0.00;;;11.70;77.70;;;;;;5054826;28;20676;-27
2023/12/10 01:11:22;;;;;;;0.00;0.00;;;11.70;77.60;;;;;;5063207;28;20958;-26
2023/12/10 01:13:52;;;;;;;0.00;0.00;;;11.70;77.70;;;;;;5066356;28;20227;-27
2023/12/10 01:16:19;;;;;;;0.00;0.00;;;11.70;77.70;;;;;;5067456;28;20763;-27
2023/12/10 01:18:47;;;;;;;0.00;0.00;;;11.70;77.60;;;;;;5063823;28;20311;-27
2023/12/10 01:21:16;;;;;;;0.00;0.00;;;11.70;77.50;;;;;;5061401;28;20261;-32
2023/12/10 01:23:43;;;;;;;0.00;0.00;;;11.70;77.50;;;;;;5069256;28;20211;-26
2023/12/10 01:26:14;;;;;;;0.00;0.00;;;11.60;77.50;;;;;;5073136;28;20212;-27
2023/12/10 01:28:41;;;;;;;0.00;0.00;;;11.60;77.50;;;;;;5048415;28;20227;-27
2023/12/10 01:31:11;;;;;;;0.00;0.00;;;11.60;77.40;;;;;;5047715;28;20227;-28
2023/12/10 01:33:38;;;;;;;0.00;0.00;;;11.60;77.20;;;;;;5066105;28;20219;-27
2023/12/10 01:36:06;;;;;;;0.00;0.00;;;11.60;77.30;;;;;;5058302;28;20199;-27
2023/12/10 01:38:34;;;;;;;0.00;0.00;;;11.60;77.30;;;;;;5054291;28;20200;-27
2023/12/10 01:41:04;;;;;;;0.00;0.00;;;11.60;77.30;;;;;;5053659;28;20219;-26
2023/12/10 01:43:41;;;;;;;0.00;0.00;;;11.60;77.10;;;;;;5068055;28;20200;-27
2023/12/10 01:46:08;;;;;;;0.00;0.00;;;11.50;77.20;;;;;;5063070;28;20662;-27
2023/12/10 01:48:41;;;;;;;0.00;0.00;;;11.50;77.10;;;;;;5063731;28;20318;-27
2023/12/10 01:51:13;;;;;;;0.00;0.00;;;11.50;77.10;;;;;;5060998;28;20592;-27
2023/12/10 01:53:41;;;;;;;0.00;0.00;;;11.50;77.00;;;;;;5048258;28;20228;-27
2023/12/10 01:56:12;;;;;;;0.00;0.00;;;11.50;77.50;;;;;;5047270;28;20254;-26
2023/12/10 01:58:41;;;;;;;0.00;0.00;;;11.50;77.00;;;;;;5055352;28;20220;-27
2023/12/10 02:01:12;;;;;;;0.00;0.00;;;11.50;76.50;;;;;;5056482;28;20206;-27
2023/12/10 02:03:40;;;;;;;0.00;0.00;;;11.40;76.80;;;;;;5058298;28;20822;-26
2023/12/10 02:06:07;;;;;;;0.00;0.00;;;11.40;77.00;;;;;;5051410;28;20247;-27
2023/12/10 02:08:40;;;;;;;0.00;0.00;;;11.40;76.90;;;;;;5062316;28;20200;-27
2023/12/10 02:11:07;;;;;;;0.00;0.00;;;11.50;76.80;;;;;;5052314;28;20204;-27
2023/12/10 02:13:34;;;;;;;0.00;0.00;;;11.50;76.90;;;;;;5048486;28;20189;-27
2023/12/10 02:16:02;;;;;;;0.00;0.00;;;11.40;76.90;;;;;;5048821;28;20388;-27
2023/12/10 02:18:35;;;;;;;0.00;0.00;;;11.40;76.80;;;;;;5047252;28;20202;-27
2023/12/10 02:21:08;;;;;;;0.00;0.00;;;11.40;76.90;;;;;;5042462;28;20872;-27
2023/12/10 02:23:46;;;;;;;0.00;0.00;;;11.50;76.90;;;;;;5054734;28;20744;-27
2023/12/10 02:26:18;;;;;;;0.00;0.00;;;11.40;76.80;;;;;;5054106;28;20200;-27
2023/12/10 02:28:46;;;;;;;0.00;0.00;;;11.50;76.90;;;;;;5056598;28;20227;-27
2023/12/10 02:31:13;;;;;;;0.00;0.00;;;11.40;76.90;;;;;;5055409;28;20659;-27
2023/12/10 02:33:42;;;;;;;0.00;0.00;;;11.50;77.10;;;;;;5073731;28;20256;-27
2023/12/10 02:36:12;;;;;;;0.00;0.00;;;11.50;76.70;;;;;;5048126;28;20245;-28
2023/12/10 02:38:40;;;;;;;0.00;0.00;;;11.50;76.60;;;;;;5045971;28;20197;-27
2023/12/10 02:41:10;;;;;;;0.00;0.00;;;11.50;76.80;;;;;;5051560;28;20219;-27
2023/12/10 02:43:37;;;;;;;0.00;0.00;;;11.50;76.80;;;;;;5066716;28;20306;-26
2023/12/10 02:46:09;;;;;;;0.00;0.00;;;11.50;76.70;;;;;;5063465;28;20200;-27
2023/12/10 02:48:38;;;;;;;0.00;0.00;;;11.50;76.60;;;;;;5047188;28;20203;-27
2023/12/10 02:51:08;;;;;;;0.00;0.00;;;11.50;76.70;;;;;;5057821;28;20668;-26
2023/12/10 02:53:38;;;;;;;0.00;0.00;;;11.50;76.70;;;;;;5065643;28;20219;-27
2023/12/10 02:56:06;;;;;;;0.00;0.00;;;11.50;76.80;;;;;;5065849;28;20591;-26
2023/12/10 02:58:33;;;;;;;0.00;0.00;;;11.50;76.70;;;;;;5047818;28;20216;-26
2023/12/10 03:01:02;;;;;;;0.00;0.00;;;11.50;76.70;;;;;;5046251;28;20206;-26
2023/12/10 03:03:30;;;;;;;0.00;0.00;;;11.50;76.60;;;;;;5060141;28;20280;-27
2023/12/10 03:05:59;;;;;;;0.00;0.00;;;11.50;76.70;;;;;;5051902;28;20263;-27
2023/12/10 03:08:29;;;;;;;0.00;0.00;;;11.50;76.60;;;;;;5059069;28;20332;-27
2023/12/10 03:10:59;;;;;;;0.00;0.00;;;11.50;76.60;;;;;;5065926;28;20233;-27
2023/12/10 03:13:31;;;;;;;0.00;0.00;;;11.50;76.80;;;;;;5043696;28;20223;-27
2023/12/10 03:16:00;;;;;;;0.00;0.00;;;11.50;76.60;;;;;;5054864;28;20208;-27
2023/12/10 03:18:30;;;;;;;0.00;0.00;;;11.50;76.60;;;;;;5060855;28;20567;-27
2023/12/10 03:20:57;;;;;;;0.00;0.00;;;11.50;76.60;;;;;;5053527;28;20208;-27
2023/12/10 03:23:27;;;;;;;0.00;0.00;;;11.50;76.50;;;;;;5054757;28;20752;-27
2023/12/10 03:26:02;;;;;;;0.00;0.00;;;11.50;76.60;;;;;;5050454;28;20306;-27
2023/12/10 03:28:33;;;;;;;0.00;0.00;;;11.50;76.50;;;;;;5046272;28;20199;-27
2023/12/10 03:31:01;;;;;;;0.00;0.00;;;11.50;76.30;;;;;;5046758;28;20248;-26
2023/12/10 03:33:28;;;;;;;0.00;0.00;;;11.40;76.50;;;;;;5049008;28;20193;-27
2023/12/10 03:35:55;;;;;;;0.00;0.00;;;11.40;76.50;;;;;;5056400;28;20760;-27
2023/12/10 03:38:23;;;;;;;0.00;0.00;;;11.40;76.40;;;;;;5052777;28;20206;-26
2023/12/10 03:40:50;;;;;;;0.00;0.00;;;11.40;76.20;;;;;;5055229;28;20210;-27
2023/12/10 03:43:17;;;;;;;0.00;0.00;;;11.40;76.40;;;;;;5053877;28;20219;-27
2023/12/10 03:45:45;;;;;;;0.00;0.00;;;11.40;76.10;;;;;;5049060;28;20199;-26
2023/12/10 03:48:12;;;;;;;0.00;0.00;;;11.40;76.20;;;;;;5050026;28;20206;-26
2023/12/10 03:50:45;;;;;;;0.00;0.00;;;11.40;76.20;;;;;;5065162;28;20227;-27
2023/12/10 03:53:14;;;;;;;0.00;0.00;;;11.40;76.20;;;;;;5050526;28;20278;-27
2023/12/10 03:55:42;;;;;;;0.00;0.00;;;11.40;76.20;;;;;;5064877;28;20668;-27
2023/12/10 03:58:14;;;;;;;0.00;0.00;;;11.40;76.30;;;;;;5046522;28;20201;-27
2023/12/10 04:00:43;;;;;;;0.00;0.00;;;11.40;76.20;;;;;;5050594;28;20220;-27
2023/12/10 04:03:15;;;;;;;0.00;0.00;;;11.40;76.30;;;;;;5066168;28;20354;-27
2023/12/10 04:05:43;;;;;;;0.00;0.00;;;11.40;76.30;;;;;;5050406;28;21020;-26
2023/12/10 04:08:12;;;;;;;0.00;0.00;;;11.40;75.90;;;;;;5048894;28;20205;-27
2023/12/10 04:10:44;;;;;;;0.00;0.00;;;11.40;75.90;;;;;;5058387;28;20211;-27
2023/12/10 04:13:12;;;;;;;0.00;0.00;;;11.40;75.90;;;;;;5067029;28;20210;-27
2023/12/10 04:15:41;;;;;;;0.00;0.00;;;11.30;75.90;;;;;;5069649;28;20570;-26
2023/12/10 04:18:08;;;;;;;0.00;0.00;;;11.30;76.00;;;;;;5054543;28;20192;-26
2023/12/10 04:20:38;;;;;;;0.00;0.00;;;11.30;76.20;;;;;;5062346;28;20717;-27
2023/12/10 04:23:10;;;;;;;0.00;0.00;;;11.30;76.00;;;;;;5064955;28;20329;-27
2023/12/10 04:25:37;;;;;;;0.00;0.00;;;11.30;76.10;;;;;;5062275;28;20205;-26
2023/12/10 04:28:06;;;;;;;0.00;0.00;;;11.30;76.00;;;;;;5063443;28;20204;-27
2023/12/10 04:30:36;;;;;;;0.00;0.00;;;11.30;76.10;;;;;;5050364;28;20224;-26
2023/12/10 04:33:04;;;;;;;0.00;0.00;;;11.30;75.90;;;;;;5050688;28;20231;-26
2023/12/10 04:35:31;;;;;;;0.00;0.00;;;11.30;75.80;;;;;;5064268;28;20196;-27
2023/12/10 04:38:00;;;;;;;0.00;0.00;;;11.30;76.00;;;;;;5064455;28;20223;-26
2023/12/10 04:40:30;;;;;;;0.00;0.00;;;11.30;76.00;;;;;;5049767;28;20546;-27
2023/12/10 04:42:58;;;;;;;0.00;0.00;;;11.30;76.10;;;;;;5063813;28;20212;-27
2023/12/10 04:45:30;;;;;;;0.00;0.00;;;11.30;76.00;;;;;;5050089;28;20218;-26
2023/12/10 04:48:04;;;;;;;0.00;0.00;;;11.30;76.00;;;;;;5068678;28;20545;-26
2023/12/10 04:50:36;;;;;;;0.00;0.00;;;11.30;76.00;;;;;;5069047;28;20249;-27
2023/12/10 04:53:03;;;;;;;0.00;0.00;;;11.30;76.10;;;;;;5069201;28;20207;-26
2023/12/10 04:55:31;;;;;;;0.00;0.00;;;11.30;76.20;;;;;;5066848;28;20204;-27
2023/12/10 04:57:58;;;;;;;0.00;0.00;;;11.30;76.10;;;;;;5048348;28;20227;-26
2023/12/10 05:00:25;;;;;;;0.00;0.00;;;11.30;76.20;;;;;;5047928;28;20248;-27
2023/12/10 05:02:55;;;;;;;0.00;0.00;;;11.40;76.30;;;;;;5058281;28;20859;-27
2023/12/10 05:05:25;;;;;;;0.00;0.00;;;11.40;75.90;;;;;;5055533;28;20243;-26
2023/12/10 05:07:52;;;;;;;0.00;0.00;;;11.40;76.20;;;;;;5052394;28;20211;-26
2023/12/10 05:10:23;;;;;;;0.00;0.00;;;11.40;76.10;;;;;;5049083;28;20256;-27
2023/12/10 05:12:50;;;;;;;0.00;0.00;;;11.40;76.10;;;;;;5056889;28;20654;-27
2023/12/10 05:15:20;;;;;;;0.00;0.00;;;11.40;76.00;;;;;;5056775;28;20295;-26
2023/12/10 05:17:49;;;;;;;0.00;0.00;;;11.40;76.60;;;;;;5063622;28;20203;-27
2023/12/10 05:20:17;;;;;;;0.00;0.00;;;11.40;76.70;;;;;;5062308;28;20798;-27
2023/12/10 05:22:46;;;;;;;0.00;0.00;;;11.40;75.90;;;;;;5064458;28;20215;-27
2023/12/10 05:25:16;;;;;;;0.00;0.00;;;11.40;75.90;;;;;;5058567;28;20215;-26
2023/12/10 05:27:45;;;;;;;0.00;0.00;;;11.40;76.00;;;;;;5063044;28;20211;-27
2023/12/10 05:30:15;;;;;;;0.00;0.00;;;11.40;75.90;;;;;;5048084;28;20997;-26
2023/12/10 05:32:43;;;;;;;0.00;0.00;;;11.40;76.00;;;;;;5051541;28;20311;-27
2023/12/10 05:35:15;;;;;;;0.00;0.00;;;11.40;76.00;;;;;;5051882;28;20287;-27
2023/12/10 05:37:44;;;;;;;0.00;0.00;;;11.40;75.90;;;;;;5065298;28;20258;-26
2023/12/10 05:40:12;;;;;;;0.00;0.00;;;11.40;76.00;;;;;;5060642;28;20215;-27
2023/12/10 05:42:44;;;;;;;0.00;0.00;;;11.40;75.90;;;;;;5052976;28;20291;-26
2023/12/10 05:45:16;;;;;;;0.00;0.00;;;11.40;75.80;;;;;;5049892;28;20306;-27
2023/12/10 05:47:46;;;;;;;0.00;0.00;;;11.40;76.00;;;;;;5060232;28;20331;-27
2023/12/10 05:50:13;;;;;;;0.00;0.00;;;11.40;75.70;;;;;;5054128;28;20236;-27
2023/12/10 05:52:44;;;;;;;0.00;0.00;;;11.30;75.80;;;;;;5067149;28;20208;-26
2023/12/10 05:55:13;;;;;;;0.00;0.00;;;11.30;75.90;;;;;;5048076;28;20201;-31
2023/12/10 05:57:43;;;;;;;0.00;0.00;;;11.40;76.10;;;;;;5063883;28;20208;-27
2023/12/10 06:00:10;;;;;;;0.00;0.00;;;11.40;76.00;;;;;;5053731;28;20207;-27
2023/12/10 06:02:38;;;;;;;0.00;0.00;;;11.40;76.10;;;;;;5063931;28;20672;-26
2023/12/10 06:05:05;;;;;;;0.00;0.00;;;11.40;76.10;;;;;;5059591;28;20900;-27
2023/12/10 06:07:36;;;;;;;0.00;0.00;;;11.40;76.00;;;;;;5050300;28;20606;-27
2023/12/10 06:10:08;;;;;;;0.00;0.00;;;11.40;75.90;;;;;;5056678;28;20219;-26
2023/12/10 06:12:38;;;;;;;0.00;0.00;;;11.40;75.90;;;;;;5055490;28;20337;-27
2023/12/10 06:15:05;;;;;;;0.00;0.00;;;11.40;75.90;;;;;;5049450;28;20214;-27
2023/12/10 06:17:32;;;;;;;0.00;0.00;;;11.40;75.90;;;;;;5057064;28;20204;-27
2023/12/10 06:20:00;;;;;;;0.00;0.00;;;11.30;75.90;;;;;;5058629;28;20557;-27
2023/12/10 06:22:34;;;;;;;0.00;0.00;;;11.30;75.90;;;;;;5066908;28;20208;-26
2023/12/10 06:25:01;;;;;;;0.00;0.00;;;11.30;75.70;;;;;;5049124;28;21034;-27
2023/12/10 06:27:31;;;;;;;0.00;0.00;;;11.30;75.80;;;;;;5048761;28;20218;-27
2023/12/10 06:30:03;;;;;;;0.00;0.00;;;11.30;75.80;;;;;;5048513;28;20563;-26
2023/12/10 06:32:37;;;;;;;0.00;0.00;;;11.30;75.70;;;;;;5061909;28;20297;-27
2023/12/10 06:35:10;;;;;;;0.00;0.00;;;11.30;75.80;;;;;;5067143;28;20187;-27
2023/12/10 06:37:38;;;;;;;0.00;0.00;;;11.30;75.70;;;;;;5067213;28;20203;-27
2023/12/10 06:40:14;;;;;;;0.00;0.00;;;11.20;75.50;;;;;;5066322;28;20302;-27
2023/12/10 06:42:41;;;;;;;0.00;0.00;;;11.20;75.60;;;;;;5066501;28;20207;-27
2023/12/10 06:45:10;;;;;;;0.00;0.00;;;11.20;75.70;;;;;;5057005;28;20199;-27
2023/12/10 06:47:37;;;;;;;0.00;0.00;;;11.20;75.70;;;;;;5049842;28;20205;-27
2023/12/10 06:50:10;;;;;;;0.00;0.00;;;11.20;75.80;;;;;;5052847;28;20251;-26
2023/12/10 06:52:37;;;;;;;0.00;0.00;;;11.20;75.70;;;;;;5051402;28;20750;-27
2023/12/10 06:55:04;;;;;;;0.00;0.00;;;11.20;75.80;;;;;;5044481;28;20291;-27
2023/12/10 06:57:36;;;;;;;0.00;0.00;;;11.20;75.80;;;;;;5045135;28;20209;-27
2023/12/10 07:00:07;;;;;;;0.00;0.00;;;11.20;75.90;;;;;;5055245;28;20618;-27
2023/12/10 07:02:34;;;;;;;0.00;0.00;;;11.20;75.90;;;;;;5063603;28;20214;-26
2023/12/10 07:05:07;;;;;;;0.00;0.00;;;11.20;75.80;;;;;;5066061;28;20739;-27
2023/12/10 07:07:34;;;;;;;0.00;0.00;;;11.20;75.80;;;;;;5064498;28;20199;-27
2023/12/10 07:10:04;;;;;;;0.00;0.00;;;11.20;75.90;;;;;;5051596;28;20570;-26
2023/12/10 07:12:32;;;;;;;0.00;0.00;;;11.20;75.90;;;;;;5056587;28;20249;-27
2023/12/10 07:15:01;;;;;;;0.00;0.00;;;11.20;76.00;;;;;;5055636;28;20905;-26
2023/12/10 07:17:31;;;;;;;0.00;0.00;;;11.20;75.90;;;;;;5046653;28;20677;-27
2023/12/10 07:20:03;;;;;;;0.00;0.00;;;11.20;75.90;;;;;;5050141;28;20636;-27
2023/12/10 07:22:35;;;;;;;0.00;0.00;;;11.20;75.90;;;;;;5049686;28;20202;-27
2023/12/10 07:25:06;;;;;;;0.00;0.00;;;11.20;75.90;;;;;;5052002;28;20240;-27
2023/12/10 07:27:37;;;;;;;0.00;0.00;;;11.20;75.90;;;;;;5068933;28;20290;-27
2023/12/10 07:30:07;;;;;;;0.00;0.00;;;11.30;76.00;;;;;;5065669;28;22495;-26
2023/12/10 07:32:35;;;;;;;0.00;0.00;;;11.30;76.00;;;;;;5060926;28;20237;-27
2023/12/10 07:35:09;;;;;;;0.00;0.00;;;11.30;76.00;;;;;;5068903;28;20199;-26
2023/12/10 07:37:38;;;;;;;0.00;0.00;;;11.30;76.00;;;;;;5070078;28;20284;-26
2023/12/10 07:40:11;;;;;;;0.00;0.00;;;11.30;76.00;;;;;;5066504;28;20250;-27
2023/12/10 07:42:40;;;;;;;0.00;0.00;;;11.30;76.00;;;;;;5067238;28;20218;-27
2023/12/10 07:45:10;;;;;;;0.00;0.00;;;11.30;76.00;;;;;;5068519;28;20195;-27
2023/12/10 07:47:37;;;;;;;0.00;0.00;;;11.30;76.10;;;;;;5049152;28;20204;-26
2023/12/10 07:50:07;;;;;;;0.00;0.00;;;11.30;76.00;;;;;;5054512;28;20215;-27
2023/12/10 07:52:35;;;;;;;0.00;0.00;;;11.30;76.00;;;;;;5055563;28;20216;-26
2023/12/10 07:55:02;;;;;;;0.00;0.00;;;11.30;76.00;;;;;;5059028;28;20211;-26
2023/12/10 07:57:32;;;;;;;0.00;0.00;;;11.30;76.00;;;;;;5057770;28;20219;-27
2023/12/10 08:00:05;;;;;;;0.00;0.00;;;11.30;75.90;;;;;;5060787;28;20203;-27
2023/12/10 08:02:33;;;;;;;0.00;0.00;;;11.30;75.90;;;;;;5064722;28;20265;-27
2023/12/10 08:05:03;;;;;;;0.00;0.00;;;11.30;75.90;;;;;;5056036;28;20227;-27
2023/12/10 08:07:32;;;;;;;0.00;0.00;;;11.30;75.90;;;;;;5060209;28;20201;-27
2023/12/10 08:10:05;;;;;;;0.00;0.00;;;11.30;76.00;;;;;;5050949;28;20199;-27
2023/12/10 08:12:34;;;;;;;0.00;0.00;;;11.30;76.00;;;;;;5048107;28;20273;-26
2023/12/10 08:15:07;;;;;;;0.00;0.00;;;11.30;76.00;;;;;;5054776;28;20208;-27
2023/12/10 08:17:35;;;;;;;0.00;0.00;;;11.30;76.10;;;;;;5050151;28;20184;-27
2023/12/10 08:20:04;;;;;;;0.00;0.00;;;11.30;76.00;;;;;;5042711;28;20223;-27
2023/12/10 08:22:34;;;;;;;0.00;0.00;;;11.40;76.10;;;;;;5071410;28;20238;-27
2023/12/10 08:25:04;;;;;;;0.00;0.00;;;11.40;76.10;;;;;;5058472;28;20494;-27
2023/12/10 08:27:31;;;;;;;0.00;0.00;;;11.40;76.10;;;;;;5049344;28;20200;-27
2023/12/10 08:29:59;;;;;;;0.00;0.00;;;11.40;76.10;;;;;;5054486;28;20719;-26
2023/12/10 08:32:27;;;;;;;0.00;0.00;;;11.40;76.10;;;;;;5049062;28;20567;-26
2023/12/10 08:34:59;;;;;;;0.00;0.00;;;11.40;76.10;;;;;;5042595;28;20227;-27
2023/12/10 08:37:32;;;;;;;0.00;0.00;;;11.40;76.10;;;;;;5052568;28;21079;-26
2023/12/10 08:40:05;;;;;;;0.00;0.00;;;11.40;76.00;;;;;;5054127;28;20243;-26
2023/12/10 08:42:32;;;;;;;0.00;0.00;;;11.40;76.00;;;;;;5057678;28;20193;-27
2023/12/10 08:45:03;;;;;;;0.00;0.00;;;11.40;75.90;;;;;;5052118;28;20211;-27
2023/12/10 08:47:32;;;;;;;0.00;0.00;;;11.40;76.00;;;;;;5063776;28;20203;-27
2023/12/10 08:49:59;;;;;;;0.00;0.00;;;11.40;76.00;;;;;;5060777;28;20297;-26
2023/12/10 08:52:27;;;;;;;0.00;0.00;;;11.40;76.10;;;;;;5056899;28;20228;-26
2023/12/10 08:54:54;;;;;;;0.00;0.00;;;11.40;76.10;;;;;;5061016;28;20278;-26
2023/12/10 08:57:23;;;;;;;0.00;0.00;;;11.50;76.10;;;;;;5047675;28;20291;-26
2023/12/10 08:59:50;;;;;;;0.00;0.00;;;11.50;76.10;;;;;;5047726;28;20200;-27
2023/12/10 09:02:19;;;;;;;0.00;0.00;;;11.50;76.10;;;;;;5059701;28;20237;-27
2023/12/10 09:04:48;;;;;;;0.00;0.00;;;11.50;76.20;;;;;;5061569;28;20211;-27
2023/12/10 09:07:18;;;;;;;0.00;0.00;;;11.50;76.10;;;;;;5065901;28;20583;-26
2023/12/10 09:09:48;;;;;;;0.00;0.00;;;11.50;76.10;;;;;;5049150;28;20208;-26
2023/12/10 09:12:27;;;;;;;0.00;0.00;;;11.50;76.10;;;;;;5058255;28;20327;-27
2023/12/10 09:14:56;;;;;;;0.00;0.00;;;11.60;76.20;;;;;;5049889;28;20208;-27
2023/12/10 09:17:23;;;;;;;0.00;0.00;;;11.60;76.20;;;;;;5061050;28;20204;-26
2023/12/10 09:19:50;;;;;;;0.00;0.00;;;11.60;76.20;;;;;;5064691;28;20332;-27
2023/12/10 09:22:18;;;;;;;0.00;0.00;;;11.60;76.20;;;;;;5058034;28;20211;-26
2023/12/10 09:24:47;;;;;;;0.00;0.00;;;11.70;76.30;;;;;;5059019;28;20206;-26
2023/12/10 09:27:17;;;;;;;0.00;0.00;;;11.70;76.30;;;;;;5066021;28;20211;-27
2023/12/10 09:29:46;;;;;;;0.00;0.00;;;11.70;76.30;;;;;;5049359;28;20629;-27
2023/12/10 09:32:20;;;;;;;0.00;0.00;;;11.70;76.30;;;;;;5050645;28;20311;-27
2023/12/10 09:34:50;;;;;;;0.00;0.00;;;11.70;76.30;;;;;;5063644;28;20302;-27
2023/12/10 09:37:17;;;;;;;0.00;0.00;;;11.70;76.30;;;;;;5067645;28;20333;-26
2023/12/10 09:39:44;;;;;;;0.00;0.00;;;11.80;76.40;;;;;;5066088;28;20192;-26
2023/12/10 09:42:12;;;;;;;0.00;0.00;;;11.80;76.40;;;;;;5051060;28;20212;-27
2023/12/10 09:44:40;;;;;;;0.00;0.00;;;11.80;76.30;;;;;;5065928;28;20211;-27
2023/12/10 09:47:09;;;;;;;0.00;0.00;;;11.80;76.40;;;;;;5064645;28;20203;-27
2023/12/10 09:49:40;;;;;;;0.00;0.00;;;11.80;76.40;;;;;;5054449;28;20738;-27
2023/12/10 09:52:10;;;;;;;0.00;0.00;;;11.90;76.50;;;;;;5065319;28;20219;-27
2023/12/10 09:54:40;;;;;;;0.00;0.00;;;11.90;76.40;;;;;;5058035;28;20720;-26
2023/12/10 09:57:11;;;;;;;0.00;0.00;;;11.90;76.40;;;;;;5046852;28;20184;-27
2023/12/10 09:59:39;;;;;;;0.00;0.00;;;11.90;76.50;;;;;;5048541;28;20291;-27
2023/12/10 10:02:10;;;;;;;0.00;0.00;;;12.00;76.50;;;;;;5062030;28;20207;-27
2023/12/10 10:04:42;;;;;;;0.00;0.00;;;12.00;76.50;;;;;;5061166;28;20204;-27
2023/12/10 10:07:10;;;;;;;0.00;0.00;;;12.00;76.50;;;;;;5049014;28;20248;-27
2023/12/10 10:09:40;;;;;;;0.00;0.00;;;12.10;76.60;;;;;;5043270;28;20940;-27
2023/12/10 10:12:07;;;;;;;0.00;0.00;;;12.10;76.50;;;;;;5055384;28;20250;-26
2023/12/10 10:14:37;;;;;;;0.00;0.00;;;12.10;76.60;;;;;;5056818;28;20306;-26
2023/12/10 10:17:07;;;;;;;0.00;0.00;;;12.20;76.60;;;;;;5054330;28;20200;-27
2023/12/10 10:19:35;;;;;;;0.00;0.00;;;12.20;76.60;;;;;;5047975;28;20663;-26
2023/12/10 10:22:07;;;;;;;0.00;0.00;;;12.20;76.50;;;;;;5065665;28;20227;-26
2023/12/10 10:24:35;;;;;;;0.00;0.00;;;12.30;77.40;;;;;;5065196;28;20200;-26
2023/12/10 10:27:02;;;;;;;0.00;0.00;;;12.30;76.60;;;;;;5063396;28;20195;-35
2023/12/10 10:29:30;;;;;;;0.00;0.00;;;12.30;76.60;;;;;;5072941;28;20238;-35
2023/12/10 10:31:59;;;;;;;0.00;0.00;;;12.30;76.60;;;;;;5048182;28;20394;-34
2023/12/10 10:34:29;;;;;;;0.00;0.00;;;12.40;76.60;;;;;;5047668;28;20201;-34
2023/12/10 10:37:01;;;;;;;0.00;0.00;;;12.40;76.60;;;;;;5063978;28;20200;-35
2023/12/10 10:39:32;;;;;;;0.00;0.00;;;12.40;76.60;;;;;;5047740;28;20193;-34
2023/12/10 10:42:04;;;;;;;0.00;0.00;;;12.50;76.70;;;;;;5071444;28;20851;-35
2023/12/10 10:44:32;;;;;;;0.00;0.00;;;12.50;76.70;;;;;;5063009;28;20207;-36
2023/12/10 10:47:00;;;;;;;0.00;0.00;;;12.50;76.70;;;;;;5059183;28;20339;-34
2023/12/10 10:49:34;;;;;;;0.00;0.00;;;12.50;76.60;;;;;;5063289;28;20296;-37
2023/12/10 10:52:08;;;;;;;0.00;0.00;;;12.60;76.70;;;;;;5051765;28;20239;-34
2023/12/10 10:54:38;;;;;;;0.00;0.00;;;12.60;76.70;;;;;;5047213;28;20212;-35
2023/12/10 10:57:05;;;;;;;0.00;0.00;;;12.60;76.70;;;;;;5046365;28;20234;-34
2023/12/10 10:59:36;;;;;;;0.00;0.00;;;12.70;76.80;;;;;;5047060;28;20319;-34
2023/12/10 11:02:11;;;;;;;0.00;0.00;;;12.70;76.70;;;;;;5047913;28;20196;-34
2023/12/10 11:04:40;;;;;;;0.00;0.00;;;12.70;76.70;;;;;;5056770;28;20231;-34
2023/12/10 11:07:08;;;;;;;0.00;0.00;;;12.70;76.50;;;;;;5046478;28;20542;-34
2023/12/10 11:10:02;;;;;;;0.00;0.00;;;12.70;76.50;;;;;;5046454;28;20982;-35
2023/12/10 11:12:45;;;;;;;0.00;0.00;;;12.70;76.60;;;;;;5056178;28;20212;-34
2023/12/10 11:15:18;;;;;;;0.00;0.00;;;12.70;76.60;;;;;;5047609;28;20204;-34
2023/12/10 11:17:54;;;;;;;0.00;0.00;;;12.70;76.60;;;;;;5054809;28;20398;-34
2023/12/10 11:20:34;;;;;;;0.00;0.00;;;12.80;76.70;;;;;;5058012;28;20205;-34
2023/12/10 11:23:03;;;;;;;0.00;0.00;;;12.80;76.80;;;;;;5060450;28;20208;-34
2023/12/10 11:25:36;;;;;;;0.00;0.00;;;12.80;76.70;;;;;;5060848;28;20277;-34
2023/12/10 11:28:24;;;;;;;0.00;0.00;;;12.80;76.60;;;;;;5046228;28;20262;-35
2023/12/10 11:30:51;;;;;;;0.00;0.00;;;12.80;76.60;;;;;;5046207;28;20214;-35
2023/12/10 11:33:19;;;;;;;0.00;0.00;;;12.90;76.70;;;;;;5047190;28;20561;-34
2023/12/10 11:35:53;;;;;;;0.00;0.00;;;12.90;76.70;;;;;;5049251;28;20208;-34
2023/12/10 11:38:47;;;;;;;0.00;0.00;;;12.90;76.80;;;;;;5059139;28;20641;-34
2023/12/10 11:41:18;;;;;;;0.00;0.00;;;13.00;76.80;;;;;;5046418;28;20663;-35
2023/12/10 11:43:48;;;;;;;0.00;0.00;;;13.00;76.80;;;;;;5048882;28;20574;-35
2023/12/10 11:46:24;;;;;;;0.00;0.00;;;13.00;76.80;;;;;;5050670;28;20212;-34
2023/12/10 11:49:03;;;;;;;0.00;0.00;;;13.00;76.70;;;;;;5062447;28;20641;-34
2023/12/10 11:51:30;;;;;;;0.00;0.00;;;13.10;76.80;;;;;;5058248;28;20674;-35
2023/12/10 11:54:04;;;;;;;0.00;0.00;;;13.10;76.70;;;;;;5062213;28;22061;-35
2023/12/10 11:56:32;;;;;;;0.00;0.00;;;13.10;76.70;;;;;;5058648;28;20194;-34
2023/12/10 11:59:01;;;;;;;0.00;0.00;;;13.10;76.70;;;;;;5063700;28;20203;-34
2023/12/10 12:01:33;;;;;;;0.00;0.00;;;13.10;76.60;;;;;;5049157;28;20306;-34
2023/12/10 12:04:00;;;;;;;0.00;0.00;;;13.20;76.60;;;;;;5057403;28;20272;-34
2023/12/10 12:06:41;;;;;;;0.00;0.00;;;13.20;76.60;;;;;;5063597;28;20798;-34
2023/12/10 12:09:17;;;;;;;0.00;0.00;;;13.20;76.60;;;;;;5068074;28;20231;-35
2023/12/10 12:11:44;;;;;;;0.00;0.00;;;13.20;76.60;;;;;;5055885;28;20987;-35
2023/12/10 12:14:18;;;;;;;0.00;0.00;;;13.20;76.50;;;;;;5059820;28;20877;-34
2023/12/10 12:16:46;;;;;;;0.00;0.00;;;13.20;76.50;;;;;;5052170;28;20230;-34
2023/12/10 12:19:26;;;;;;;0.00;0.00;;;13.20;76.50;;;;;;5060117;28;20677;-35
2023/12/10 12:21:58;;;;;;;0.00;0.00;;;13.20;76.50;;;;;;5054200;28;20217;-34
2023/12/10 12:24:28;;;;;;;0.00;0.00;;;13.30;76.60;;;;;;5060593;28;20292;-34
2023/12/10 12:26:55;;;;;;;0.00;0.00;;;13.30;76.50;;;;;;5053505;28;20270;-35
2023/12/10 12:29:25;;;;;;;0.00;0.00;;;13.30;76.50;;;;;;5047633;28;20203;-35
2023/12/10 12:31:55;;;;;;;0.00;0.00;;;13.30;76.60;;;;;;5054189;28;20658;-34
2023/12/10 12:34:42;;;;;;;0.00;0.00;;;13.30;76.50;;;;;;5050407;28;20314;-35
2023/12/10 12:37:11;;;;;;;0.00;0.00;;;13.40;76.70;;;;;;5058848;28;20666;-34
2023/12/10 12:39:43;;;;;;;0.00;0.00;;;13.40;76.50;;;;;;5068951;28;20196;-34
2023/12/10 12:42:11;;;;;;;0.00;0.00;;;13.40;76.50;;;;;;5054614;28;20515;-34
2023/12/10 12:44:40;;;;;;;0.00;0.00;;;13.40;76.60;;;;;;5051804;28;20204;-34
2023/12/10 12:47:09;;;;;;;0.00;0.00;;;13.40;76.60;;;;;;5062947;28;20204;-34
2023/12/10 12:49:37;;;;;;;0.00;0.00;;;13.40;76.50;;;;;;5065877;28;20573;-35
2023/12/10 12:52:05;;;;;;;0.00;0.00;;;13.40;76.30;;;;;;5066566;28;20215;-35
2023/12/10 12:54:38;;;;;;;0.00;0.00;;;13.40;76.20;;;;;;5068450;28;20188;-35
2023/12/10 12:57:06;;;;;;;0.00;0.00;;;13.40;76.30;;;;;;5051448;28;20330;-34
2023/12/10 12:59:35;;;;;;;0.00;0.00;;;13.40;76.20;;;;;;5044904;28;20196;-35
2023/12/10 13:02:03;;;;;;;0.00;0.00;;;13.30;76.20;;;;;;5046727;28;20217;-35